Time;durP1;ratioP1;P1;durP2;ratioP2;P2;SDS_P1;SDS_P2;PMS_P1;PMS_P2;Temp;Humidity;BMP_temperature;BMP_pressure;BME280_temperature;BME280_humidity;BME280_pressure;Samples;Min_cycle;Max_cycle;Signal;HPM_P1;HPM_P2
2023/01/01 00:01:11;;;;;;;265.48;188.27;;;10.70;82.20;;;;;;4977714;28;20576;-65
2023/01/01 00:03:37;;;;;;;154.20;106.55;;;10.70;82.20;;;;;;4983152;28;20042;-63
2023/01/01 00:06:08;;;;;;;213.48;147.48;;;10.60;82.50;;;;;;4976442;28;20572;-64
2023/01/01 00:08:34;;;;;;;192.90;131.80;;;10.60;82.90;;;;;;4977879;28;20405;-63
2023/01/01 00:11:08;;;;;;;219.50;145.77;;;10.60;82.70;;;;;;4977391;28;20056;-63
2023/01/01 00:13:36;;;;;;;228.70;156.40;;;10.50;82.60;;;;;;4981400;28;20498;-62
2023/01/01 00:16:09;;;;;;;164.57;111.20;;;10.50;82.50;;;;;;4974395;28;20506;-63
2023/01/01 00:18:35;;;;;;;119.10;80.40;;;10.50;82.50;;;;;;4983011;28;20035;-63
2023/01/01 00:21:05;;;;;;;152.60;104.40;;;10.50;82.60;;;;;;4978543;28;20137;-63
2023/01/01 00:23:32;;;;;;;169.48;114.05;;;10.50;83.10;;;;;;4979264;28;20133;-61
2023/01/01 00:25:58;;;;;;;217.00;146.90;;;10.40;83.00;;;;;;4979230;28;20073;-62
2023/01/01 00:28:23;;;;;;;232.10;155.93;;;10.40;82.90;;;;;;4977227;28;20038;-63
2023/01/01 00:30:49;;;;;;;219.05;145.63;;;10.40;82.90;;;;;;4972127;28;22423;-63
2023/01/01 00:33:15;;;;;;;193.18;131.43;;;10.40;82.80;;;;;;4982803;28;20398;-62
2023/01/01 00:35:40;;;;;;;206.70;139.60;;;10.40;82.80;;;;;;4981049;28;20117;-63
2023/01/01 00:38:06;;;;;;;85.68;57.70;;;10.30;82.90;;;;;;4974866;28;20037;-63
2023/01/01 00:40:32;;;;;;;45.65;31.70;;;10.30;82.90;;;;;;4974260;28;20414;-62
2023/01/01 00:42:57;;;;;;;44.63;31.35;;;10.30;83.30;;;;;;4984869;28;20073;-62
2023/01/01 00:45:23;;;;;;;58.00;39.58;;;10.30;83.60;;;;;;4972929;28;20085;-63
2023/01/01 00:47:51;;;;;;;50.30;34.65;;;10.30;83.50;;;;;;4977205;28;20632;-63
2023/01/01 00:50:17;;;;;;;99.07;69.70;;;10.30;83.60;;;;;;4980546;28;20038;-61
2023/01/01 00:52:42;;;;;;;135.68;94.07;;;10.30;83.70;;;;;;4973435;28;20045;-59
2023/01/01 00:55:08;;;;;;;153.00;105.22;;;10.20;83.60;;;;;;4978976;28;20058;-64
2023/01/01 00:57:34;;;;;;;138.70;94.55;;;10.40;83.60;;;;;;4980840;28;20034;-61
2023/01/01 01:00:00;;;;;;;127.53;90.75;;;10.20;83.40;;;;;;4975466;28;20042;-61
2023/01/01 01:02:25;;;;;;;129.93;86.38;;;10.20;83.50;;;;;;4977075;28;20040;-62
2023/01/01 01:04:51;;;;;;;110.57;75.40;;;10.20;83.50;;;;;;4981052;28;20042;-61
2023/01/01 01:07:16;;;;;;;75.28;51.22;;;10.10;83.60;;;;;;4982874;28;20122;-60
2023/01/01 01:09:42;;;;;;;76.22;49.20;;;10.10;83.60;;;;;;4979520;28;20037;-62
2023/01/01 01:12:07;;;;;;;82.90;54.00;;;10.10;83.70;;;;;;4978424;28;20129;-63
2023/01/01 01:14:33;;;;;;;99.57;65.65;;;10.10;83.60;;;;;;4977790;28;20085;-63
2023/01/01 01:16:58;;;;;;;129.63;87.85;;;10.10;83.60;;;;;;4983381;28;20395;-61
2023/01/01 01:19:25;;;;;;;133.98;88.18;;;10.10;84.30;;;;;;4980903;28;20030;-63
2023/01/01 01:21:51;;;;;;;136.63;90.00;;;10.10;83.50;;;;;;4985599;28;20054;-64
2023/01/01 01:24:17;;;;;;;132.00;89.35;;;10.00;83.50;;;;;;4981115;28;20479;-64
2023/01/01 01:26:42;;;;;;;134.75;87.65;;;10.00;83.60;;;;;;4978148;28;20042;-63
2023/01/01 01:29:08;;;;;;;129.55;86.43;;;10.00;83.60;;;;;;4984877;28;20141;-64
2023/01/01 01:31:34;;;;;;;119.85;78.75;;;10.00;83.80;;;;;;4980976;28;20036;-63
2023/01/01 01:34:00;;;;;;;117.30;80.97;;;10.00;83.80;;;;;;4985730;28;20097;-62
2023/01/01 01:36:27;;;;;;;116.85;79.18;;;10.00;83.80;;;;;;4982048;28;20038;-63
2023/01/01 01:38:54;;;;;;;112.43;74.95;;;10.00;83.80;;;;;;4978800;28;20449;-64
2023/01/01 01:41:22;;;;;;;111.53;74.40;;;10.00;84.00;;;;;;4983005;28;20046;-62
2023/01/01 01:43:55;;;;;;;114.13;74.90;;;9.90;83.80;;;;;;4987057;28;20350;-63
2023/01/01 01:46:23;;;;;;;107.05;71.57;;;10.00;83.90;;;;;;4980001;28;20045;-63
2023/01/01 01:48:50;;;;;;;106.15;70.07;;;9.90;83.80;;;;;;4979597;28;20038;-62
2023/01/01 01:51:26;;;;;;;93.65;62.80;;;9.90;83.70;;;;;;4977603;28;20038;-63
2023/01/01 01:53:58;;;;;;;88.72;56.88;;;9.90;83.80;;;;;;4977188;28;20147;-64
2023/01/01 01:56:52;;;;;;;73.40;51.00;;;9.80;83.70;;;;;;4978453;28;20039;-61
2023/01/01 01:59:21;;;;;;;66.53;44.40;;;9.90;83.90;;;;;;4983295;28;20050;-61
2023/01/01 02:01:47;;;;;;;54.95;35.63;;;9.90;83.90;;;;;;4977017;28;20038;-63
2023/01/01 02:04:12;;;;;;;63.30;40.70;;;9.80;84.10;;;;;;4980819;28;20034;-62
2023/01/01 02:06:39;;;;;;;77.30;48.75;;;9.80;84.30;;;;;;4984012;28;20038;-61
2023/01/01 02:09:06;;;;;;;79.78;52.70;;;9.80;84.30;;;;;;4978675;28;20347;-63
2023/01/01 02:11:32;;;;;;;92.28;60.45;;;9.80;84.20;;;;;;4975663;28;20569;-61
2023/01/01 02:13:59;;;;;;;95.18;61.00;;;9.80;84.00;;;;;;4976018;28;20046;-60
2023/01/01 02:16:46;;;;;;;100.97;66.10;;;9.80;83.90;;;;;;4974875;28;20049;-64
2023/01/01 02:19:57;;;;;;;105.20;68.20;;;9.70;83.90;;;;;;4983347;28;20038;-63
2023/01/01 02:23:12;;;;;;;103.38;62.90;;;9.70;83.90;;;;;;4981303;28;20062;-63
2023/01/01 02:26:06;;;;;;;92.97;59.63;;;9.70;84.00;;;;;;4906716;28;20081;-63
2023/01/01 02:28:50;;;;;;;86.35;56.95;;;9.60;83.80;;;;;;4979846;28;20130;-62
2023/01/01 02:31:22;;;;;;;86.93;56.20;;;9.60;83.80;;;;;;4967875;28;20418;-61
2023/01/01 02:33:50;;;;;;;77.97;51.58;;;9.50;83.90;;;;;;4970249;28;20306;-61
2023/01/01 02:36:18;;;;;;;80.75;53.05;;;9.50;83.90;;;;;;4972587;28;20035;-62
2023/01/01 02:38:49;;;;;;;76.85;52.13;;;9.50;84.00;;;;;;4970041;28;20042;-63
2023/01/01 02:41:29;;;;;;;74.13;47.78;;;9.50;84.10;;;;;;4973358;28;20054;-64
2023/01/01 02:43:55;;;;;;;62.72;43.40;;;9.40;84.30;;;;;;4975434;28;20105;-62
2023/01/01 02:46:20;;;;;;;64.13;42.38;;;9.40;84.20;;;;;;4979540;28;20459;-62
2023/01/01 02:48:48;;;;;;;62.17;42.38;;;9.40;84.80;;;;;;4971446;28;20048;-63
2023/01/01 02:51:56;;;;;;;57.85;35.95;;;9.40;85.10;;;;;;4971072;28;20041;-62
2023/01/01 02:54:48;;;;;;;58.60;37.47;;;9.30;85.90;;;;;;4969496;28;20116;-62
2023/01/01 02:57:19;;;;;;;54.97;37.25;;;9.30;85.80;;;;;;4972450;28;20289;-62
2023/01/01 03:00:18;;;;;;;55.22;35.92;;;9.40;85.30;;;;;;4974655;28;20031;-63
2023/01/01 03:03:08;;;;;;;55.60;35.63;;;9.30;85.50;;;;;;4980715;28;20037;-63
2023/01/01 03:08:42;;;;;;;53.97;34.67;;;9.30;86.20;;;;;;4970715;28;20466;-63
2023/01/01 03:11:12;;;;;;;52.85;33.60;;;9.40;86.20;;;;;;4973916;28;20038;-62
2023/01/01 03:14:01;;;;;;;49.45;32.55;;;9.40;86.20;;;;;;4970790;28;20035;-64
2023/01/01 03:16:34;;;;;;;43.08;28.17;;;9.40;86.90;;;;;;4973152;28;20783;-63
2023/01/01 03:19:24;;;;;;;44.35;28.05;;;9.40;86.70;;;;;;4972043;28;20074;-63
2023/01/01 03:21:53;;;;;;;47.05;29.52;;;9.40;87.50;;;;;;4974612;28;20463;-63
2023/01/01 03:24:24;;;;;;;45.97;28.35;;;9.50;86.80;;;;;;4971026;28;20046;-62
2023/01/01 03:26:54;;;;;;;45.20;30.88;;;9.50;86.90;;;;;;4977958;28;20133;-64
2023/01/01 03:29:22;;;;;;;48.28;30.67;;;9.50;86.60;;;;;;4975075;28;20085;-62
2023/01/01 03:31:51;;;;;;;47.60;30.42;;;9.50;87.20;;;;;;4973616;28;20038;-63
2023/01/01 03:34:23;;;;;;;42.53;29.13;;;9.50;86.20;;;;;;4974389;28;20133;-63
2023/01/01 03:36:54;;;;;;;41.15;27.98;;;9.50;86.20;;;;;;4972062;28;20442;-64
2023/01/01 03:39:25;;;;;;;41.03;27.73;;;9.50;86.10;;;;;;4976847;28;20461;-63
2023/01/01 03:42:05;;;;;;;37.13;25.88;;;9.50;86.00;;;;;;4976939;28;20091;-62
2023/01/01 03:44:46;;;;;;;37.05;24.52;;;9.50;85.70;;;;;;4972888;28;20052;-64
2023/01/01 03:47:12;;;;;;;38.45;25.90;;;9.50;85.70;;;;;;4974751;28;20057;-61
2023/01/01 03:49:38;;;;;;;32.03;21.50;;;9.50;85.60;;;;;;4974496;28;20038;-63
2023/01/01 03:52:28;;;;;;;34.45;22.80;;;9.50;85.70;;;;;;4972233;28;20375;-63
2023/01/01 03:54:56;;;;;;;32.55;20.55;;;9.50;87.20;;;;;;4970308;28;20050;-63
2023/01/01 03:57:43;;;;;;;35.35;21.67;;;9.50;86.50;;;;;;4973691;28;20113;-63
2023/01/01 04:00:15;;;;;;;33.10;21.85;;;9.50;86.70;;;;;;4977728;28;20057;-64
2023/01/01 04:03:05;;;;;;;32.25;21.05;;;9.40;86.10;;;;;;4976715;28;20417;-63
2023/01/01 04:05:35;;;;;;;34.03;22.63;;;9.50;86.20;;;;;;4973850;28;20041;-62
2023/01/01 04:08:02;;;;;;;36.47;23.10;;;9.50;85.90;;;;;;4971801;28;20383;-63
2023/01/01 04:10:30;;;;;;;33.50;22.00;;;9.50;85.70;;;;;;4973843;28;21232;-63
2023/01/01 04:12:57;;;;;;;35.95;23.38;;;9.50;85.70;;;;;;4967762;28;20038;-62
2023/01/01 04:15:26;;;;;;;36.63;23.13;;;9.50;85.70;;;;;;4966308;28;20046;-63
2023/01/01 04:17:53;;;;;;;35.45;22.85;;;9.50;85.70;;;;;;4970234;28;20037;-63
2023/01/01 04:20:20;;;;;;;35.15;22.95;;;9.40;85.40;;;;;;4971403;28;20409;-63
2023/01/01 04:22:45;;;;;;;32.63;21.25;;;9.40;85.30;;;;;;4970894;28;20590;-63
2023/01/01 04:25:12;;;;;;;29.85;20.73;;;9.40;85.30;;;;;;4967902;28;20046;-62
2023/01/01 04:27:39;;;;;;;28.73;19.27;;;9.40;85.50;;;;;;4974149;28;20022;-61
2023/01/01 04:30:07;;;;;;;29.75;18.92;;;9.40;85.60;;;;;;4971354;28;20445;-60
2023/01/01 04:32:33;;;;;;;28.23;18.48;;;9.40;85.70;;;;;;4970159;28;20046;-63
2023/01/01 04:34:59;;;;;;;30.95;19.98;;;9.40;85.80;;;;;;4970738;28;20214;-62
2023/01/01 04:37:25;;;;;;;33.05;22.58;;;9.40;85.70;;;;;;4976057;28;20038;-60
2023/01/01 04:39:51;;;;;;;35.42;22.38;;;9.40;85.50;;;;;;4972770;28;20034;-63
2023/01/01 04:42:16;;;;;;;33.30;21.70;;;9.40;85.50;;;;;;4983210;28;20034;-61
2023/01/01 04:44:42;;;;;;;31.35;21.48;;;9.30;85.30;;;;;;4977488;28;20315;-62
2023/01/01 04:47:07;;;;;;;31.40;20.15;;;9.30;85.30;;;;;;4976008;28;20556;-62
2023/01/01 04:49:33;;;;;;;34.95;20.02;;;9.30;85.10;;;;;;4976767;28;20374;-63
2023/01/01 04:51:58;;;;;;;26.63;17.70;;;9.20;85.00;;;;;;4973886;28;20031;-61
2023/01/01 04:54:24;;;;;;;27.08;18.02;;;9.20;85.20;;;;;;4971766;28;20295;-62
2023/01/01 04:56:49;;;;;;;32.15;18.73;;;9.20;85.40;;;;;;4972684;28;20034;-61
2023/01/01 04:59:15;;;;;;;28.38;18.67;;;9.10;85.50;;;;;;4984240;28;20030;-63
2023/01/01 05:01:41;;;;;;;28.77;18.60;;;9.10;85.70;;;;;;4977936;28;20038;-62
2023/01/01 05:04:06;;;;;;;28.00;17.92;;;9.10;85.70;;;;;;4974410;28;20339;-62
2023/01/01 05:06:32;;;;;;;27.48;17.70;;;9.00;86.00;;;;;;4978331;28;20061;-60
2023/01/01 05:08:58;;;;;;;29.75;18.27;;;9.00;86.20;;;;;;4978106;28;20144;-62
2023/01/01 05:11:26;;;;;;;26.85;16.85;;;9.00;86.00;;;;;;4967597;28;20037;-62
2023/01/01 05:13:54;;;;;;;28.73;17.45;;;9.00;85.90;;;;;;4978417;28;20065;-64
2023/01/01 05:16:22;;;;;;;29.35;18.17;;;9.00;85.90;;;;;;4973643;28;20038;-62
2023/01/01 05:18:49;;;;;;;26.30;17.38;;;9.00;86.00;;;;;;4974537;28;20124;-63
2023/01/01 05:21:17;;;;;;;27.50;17.77;;;8.90;86.00;;;;;;4975236;28;20031;-64
2023/01/01 05:23:42;;;;;;;27.00;17.85;;;8.90;85.90;;;;;;4970392;28;20046;-64
2023/01/01 05:26:15;;;;;;;30.20;18.85;;;8.90;85.80;;;;;;4977963;28;20574;-63
2023/01/01 05:28:41;;;;;;;101.35;45.13;;;8.90;85.60;;;;;;4975632;28;20030;-62
2023/01/01 05:31:09;;;;;;;96.90;42.13;;;8.90;85.30;;;;;;4973144;28;20238;-62
2023/01/01 05:33:35;;;;;;;53.90;26.77;;;8.90;85.10;;;;;;4977831;28;20174;-63
2023/01/01 05:36:02;;;;;;;41.08;22.85;;;8.80;85.00;;;;;;4974594;28;22056;-63
2023/01/01 05:38:27;;;;;;;32.85;18.92;;;8.80;84.80;;;;;;4980961;28;20094;-62
2023/01/01 05:40:53;;;;;;;44.90;23.45;;;8.80;84.80;;;;;;4977668;28;20041;-62
2023/01/01 05:43:19;;;;;;;38.80;21.42;;;8.70;84.70;;;;;;4975224;28;20063;-61
2023/01/01 05:45:44;;;;;;;29.13;18.77;;;8.70;84.80;;;;;;4974099;28;20041;-62
2023/01/01 05:48:10;;;;;;;32.67;18.27;;;8.70;84.80;;;;;;4977762;28;20038;-62
2023/01/01 05:50:36;;;;;;;25.73;17.70;;;8.70;84.90;;;;;;4971761;28;20035;-64
2023/01/01 05:53:02;;;;;;;36.13;22.20;;;8.60;84.80;;;;;;4982528;28;20306;-61
2023/01/01 05:55:27;;;;;;;45.13;25.15;;;8.60;84.80;;;;;;4972278;28;20038;-62
2023/01/01 05:57:53;;;;;;;44.13;25.35;;;8.60;84.90;;;;;;4979210;28;20181;-61
2023/01/01 06:00:19;;;;;;;42.55;24.58;;;8.50;84.80;;;;;;4973398;28;20026;-63
2023/01/01 06:02:44;;;;;;;39.55;23.75;;;8.50;84.80;;;;;;4975735;28;20026;-63
2023/01/01 06:05:10;;;;;;;34.70;21.25;;;8.50;85.00;;;;;;4976284;28;20130;-61
2023/01/01 06:07:35;;;;;;;34.28;20.50;;;8.40;85.00;;;;;;4973996;28;21350;-60
2023/01/01 06:10:02;;;;;;;29.23;18.77;;;8.40;85.00;;;;;;4976192;28;20034;-61
2023/01/01 06:12:27;;;;;;;34.20;21.40;;;8.40;85.10;;;;;;4966820;28;20039;-61
2023/01/01 06:14:53;;;;;;;29.95;18.90;;;8.30;85.20;;;;;;4976399;28;20101;-63
2023/01/01 06:17:18;;;;;;;32.58;20.02;;;8.30;85.20;;;;;;4977545;28;20031;-62
2023/01/01 06:19:44;;;;;;;30.83;19.35;;;8.30;85.30;;;;;;4973685;28;20469;-60
2023/01/01 06:22:09;;;;;;;30.85;18.70;;;8.20;85.30;;;;;;4973157;28;20074;-60
2023/01/01 06:24:35;;;;;;;29.60;17.77;;;8.20;85.30;;;;;;4973782;28;20104;-63
2023/01/01 06:27:00;;;;;;;30.85;17.90;;;8.20;85.30;;;;;;4968158;28;20097;-61
2023/01/01 06:29:26;;;;;;;29.13;18.45;;;8.20;85.90;;;;;;4979809;28;20035;-63
2023/01/01 06:31:52;;;;;;;28.15;17.75;;;8.10;86.10;;;;;;4975724;28;20512;-61
2023/01/01 06:34:17;;;;;;;31.25;18.48;;;8.10;85.90;;;;;;4975630;28;20225;-64
2023/01/01 06:36:43;;;;;;;29.65;16.75;;;8.10;85.80;;;;;;4971805;28;20153;-62
2023/01/01 06:39:08;;;;;;;25.98;17.13;;;8.10;85.90;;;;;;4973971;28;20034;-63
2023/01/01 06:41:34;;;;;;;27.08;17.20;;;8.10;85.90;;;;;;4976695;28;20084;-63
2023/01/01 06:44:00;;;;;;;25.30;17.05;;;8.10;85.80;;;;;;4983955;28;20042;-63
2023/01/01 06:46:27;;;;;;;27.85;17.40;;;8.10;85.80;;;;;;4981100;28;20034;-62
2023/01/01 06:48:57;;;;;;;26.02;16.70;;;8.00;85.70;;;;;;4982469;28;20045;-63
2023/01/01 06:51:29;;;;;;;27.63;16.48;;;8.00;85.80;;;;;;4982040;28;20047;-63
2023/01/01 06:53:58;;;;;;;25.80;16.40;;;8.00;85.80;;;;;;4980562;28;20367;-61
2023/01/01 06:56:24;;;;;;;23.25;15.43;;;7.90;85.70;;;;;;4982700;28;20391;-59
2023/01/01 06:58:50;;;;;;;22.08;14.75;;;8.00;85.90;;;;;;4982252;28;20061;-61
2023/01/01 07:01:17;;;;;;;22.77;14.55;;;7.90;85.90;;;;;;4978210;28;20154;-61
2023/01/01 07:03:48;;;;;;;24.63;15.02;;;7.90;85.80;;;;;;4978862;28;20605;-60
2023/01/01 07:06:13;;;;;;;23.25;14.70;;;7.90;85.50;;;;;;4982338;28;20046;-61
2023/01/01 07:08:39;;;;;;;23.67;13.38;;;7.90;85.30;;;;;;4979635;28;20100;-62
2023/01/01 07:11:05;;;;;;;21.40;13.93;;;8.00;85.80;;;;;;4978363;28;20383;-61
2023/01/01 07:13:31;;;;;;;20.23;12.40;;;7.90;86.20;;;;;;4978854;28;20081;-63
2023/01/01 07:15:56;;;;;;;19.80;12.65;;;7.80;86.30;;;;;;4983376;28;20050;-63
2023/01/01 07:18:23;;;;;;;20.75;12.02;;;7.80;86.50;;;;;;4980998;28;20061;-63
2023/01/01 07:20:57;;;;;;;20.10;12.40;;;7.80;86.80;;;;;;4981529;28;20062;-64
2023/01/01 07:23:23;;;;;;;17.83;11.47;;;7.80;87.30;;;;;;4977747;28;20034;-63
2023/01/01 07:25:50;;;;;;;17.15;11.18;;;7.80;87.30;;;;;;4982378;28;20027;-63
2023/01/01 07:28:16;;;;;;;20.75;12.15;;;7.80;87.50;;;;;;4980432;28;20042;-63
2023/01/01 07:30:41;;;;;;;16.33;11.02;;;7.80;87.90;;;;;;4980503;28;20034;-62
2023/01/01 07:33:12;;;;;;;18.38;11.40;;;7.80;88.00;;;;;;4980264;28;20031;-62
2023/01/01 07:35:38;;;;;;;17.45;11.35;;;7.80;88.30;;;;;;4978721;28;20093;-63
2023/01/01 07:38:04;;;;;;;20.90;11.88;;;7.80;88.30;;;;;;4984120;28;20038;-61
2023/01/01 07:40:29;;;;;;;20.85;12.88;;;7.90;88.60;;;;;;4976186;28;20556;-60
2023/01/01 07:42:55;;;;;;;18.38;11.48;;;7.90;88.80;;;;;;4975110;28;20485;-63
2023/01/01 07:45:21;;;;;;;19.83;11.57;;;7.90;89.00;;;;;;4973244;28;20041;-64
2023/01/01 07:47:55;;;;;;;19.15;11.27;;;7.90;89.10;;;;;;4974045;28;20110;-63
2023/01/01 07:50:22;;;;;;;17.85;10.48;;;8.00;89.40;;;;;;4971005;28;20533;-63
2023/01/01 07:52:48;;;;;;;16.17;9.95;;;8.00;89.30;;;;;;4973151;28;20077;-63
2023/01/01 07:55:15;;;;;;;17.80;10.15;;;8.00;89.50;;;;;;4976992;28;20568;-63
2023/01/01 07:57:43;;;;;;;13.25;8.80;;;8.10;90.00;;;;;;4978238;28;20097;-62
2023/01/01 08:00:10;;;;;;;15.52;9.00;;;8.10;90.00;;;;;;4968748;28;20043;-63
2023/01/01 08:02:36;;;;;;;12.88;9.00;;;8.20;90.20;;;;;;4963914;28;20387;-61
2023/01/01 08:05:02;;;;;;;12.63;8.68;;;8.30;90.30;;;;;;4971875;28;21412;-63
2023/01/01 08:07:27;;;;;;;17.20;8.45;;;8.40;90.50;;;;;;4974092;28;20038;-63
2023/01/01 08:09:53;;;;;;;10.90;7.32;;;8.40;90.60;;;;;;4974939;28;20047;-63
2023/01/01 08:12:18;;;;;;;11.68;8.00;;;8.50;90.90;;;;;;4968428;28;20038;-63
2023/01/01 08:14:45;;;;;;;10.35;7.30;;;8.60;91.10;;;;;;4969079;28;20129;-63
2023/01/01 08:17:10;;;;;;;11.73;7.20;;;8.80;91.30;;;;;;4966634;28;20541;-61
2023/01/01 08:19:36;;;;;;;9.10;6.45;;;9.00;91.50;;;;;;4973706;28;20030;-63
2023/01/01 08:22:01;;;;;;;10.13;6.03;;;9.10;91.40;;;;;;4975176;28;20035;-62
2023/01/01 08:24:27;;;;;;;10.55;6.07;;;9.20;91.30;;;;;;4975137;28;20883;-63
2023/01/01 08:26:53;;;;;;;8.00;5.55;;;9.40;91.20;;;;;;4971722;28;20181;-61
2023/01/01 08:29:19;;;;;;;6.43;4.60;;;9.50;91.10;;;;;;4971378;28;20043;-62
2023/01/01 08:31:45;;;;;;;6.65;4.43;;;9.70;91.10;;;;;;4970706;28;20061;-61
2023/01/01 08:34:10;;;;;;;6.35;4.50;;;9.80;91.20;;;;;;4976396;28;20602;-60
2023/01/01 08:36:39;;;;;;;10.13;5.90;;;10.00;91.20;;;;;;4973784;28;20121;-62
2023/01/01 08:39:05;;;;;;;11.95;6.75;;;10.20;91.10;;;;;;4972768;28;20035;-63
2023/01/01 08:41:31;;;;;;;12.80;7.30;;;10.40;90.90;;;;;;4973624;28;20037;-61
2023/01/01 08:43:56;;;;;;;10.27;6.75;;;10.60;90.70;;;;;;4975140;28;20034;-63
2023/01/01 08:46:22;;;;;;;9.48;6.25;;;10.70;90.50;;;;;;4968866;28;20042;-62
2023/01/01 08:48:47;;;;;;;8.30;5.50;;;10.90;90.30;;;;;;4970864;28;20512;-61
2023/01/01 08:51:13;;;;;;;12.05;6.05;;;11.00;90.10;;;;;;4970217;28;20097;-62
2023/01/01 08:53:38;;;;;;;6.93;5.32;;;11.10;90.00;;;;;;4981859;28;20042;-62
2023/01/01 08:56:07;;;;;;;8.68;6.20;;;11.30;89.70;;;;;;4975265;28;20081;-61
2023/01/01 08:58:34;;;;;;;8.30;6.07;;;11.40;89.50;;;;;;4981239;28;20033;-63
2023/01/01 09:01:00;;;;;;;5.68;4.10;;;11.50;89.20;;;;;;4969093;28;20049;-61
2023/01/01 09:03:26;;;;;;;5.88;3.50;;;11.60;89.00;;;;;;4973308;28;20493;-61
2023/01/01 09:05:53;;;;;;;4.50;3.42;;;11.70;88.80;;;;;;4975058;28;20124;-61
2023/01/01 09:08:19;;;;;;;4.88;3.28;;;11.80;88.80;;;;;;4977855;28;20038;-62
2023/01/01 09:10:46;;;;;;;5.05;3.13;;;11.90;88.60;;;;;;4969544;28;20220;-60
2023/01/01 09:13:14;;;;;;;3.42;2.75;;;12.00;88.40;;;;;;4969682;28;20045;-64
2023/01/01 09:15:41;;;;;;;4.95;2.47;;;12.10;88.10;;;;;;4970891;28;20417;-63
2023/01/01 09:18:08;;;;;;;3.85;2.20;;;12.30;88.00;;;;;;4969491;28;20494;-63
2023/01/01 09:20:34;;;;;;;3.20;2.42;;;12.40;87.70;;;;;;4974595;28;20072;-64
2023/01/01 09:23:00;;;;;;;3.42;2.17;;;12.50;87.40;;;;;;4983502;28;20035;-62
2023/01/01 09:25:25;;;;;;;3.28;2.13;;;12.70;87.20;;;;;;4976709;28;20046;-63
2023/01/01 09:28:02;;;;;;;2.78;1.90;;;12.80;86.70;;;;;;4982493;28;20347;-64
2023/01/01 09:30:28;;;;;;;2.90;2.60;;;12.90;85.80;;;;;;4969508;28;20023;-63
2023/01/01 09:32:54;;;;;;;2.00;1.80;;;13.00;85.90;;;;;;4977689;28;21048;-63
2023/01/01 09:35:19;;;;;;;4.20;2.30;;;13.10;85.50;;;;;;4972352;28;20046;-64
2023/01/01 09:37:45;;;;;;;5.32;2.72;;;13.30;85.20;;;;;;4982022;28;20576;-62
2023/01/01 09:40:34;;;;;;;3.45;2.30;;;13.40;84.60;;;;;;4973589;28;20038;-63
2023/01/01 09:43:22;;;;;;;3.60;2.50;;;13.50;83.70;;;;;;4983109;28;21580;-62
2023/01/01 09:46:06;;;;;;;6.85;4.10;;;13.60;82.90;;;;;;4972983;28;20034;-61
2023/01/01 09:48:34;;;;;;;7.97;2.20;;;13.70;82.80;;;;;;4971397;28;20085;-62
2023/01/01 09:51:03;;;;;;;2.35;2.08;;;13.80;83.10;;;;;;4975104;28;20035;-63
2023/01/01 09:53:40;;;;;;;3.15;1.90;;;13.90;82.60;;;;;;4973885;28;20038;-63
2023/01/01 09:56:13;;;;;;;3.35;1.90;;;13.90;81.90;;;;;;4974139;28;20045;-61
2023/01/01 09:58:39;;;;;;;2.97;1.65;;;14.00;81.90;;;;;;4983681;28;20430;-64
2023/01/01 10:01:33;;;;;;;3.85;1.65;;;14.10;81.90;;;;;;4985000;28;20099;-61
2023/01/01 10:04:26;;;;;;;3.38;1.58;;;14.10;81.00;;;;;;4986121;28;20030;-60
2023/01/01 10:07:22;;;;;;;3.70;1.77;;;14.20;80.50;;;;;;4985855;28;20034;-63
2023/01/01 10:10:15;;;;;;;2.40;1.75;;;14.30;80.30;;;;;;4988517;28;20446;-62
2023/01/01 10:12:40;;;;;;;3.13;1.60;;;14.30;80.90;;;;;;4983871;28;20044;-63
2023/01/01 10:15:19;;;;;;;3.67;2.13;;;14.40;80.70;;;;;;4986889;28;20038;-64
2023/01/01 10:17:47;;;;;;;5.10;1.58;;;14.50;79.70;;;;;;4985495;28;20113;-63
2023/01/01 10:20:25;;;;;;;1.92;1.60;;;14.50;80.10;;;;;;4987272;28;20042;-63
2023/01/01 10:22:56;;;;;;;3.90;2.25;;;14.50;79.70;;;;;;4985986;28;20164;-63
2023/01/01 10:25:25;;;;;;;5.68;2.80;;;14.50;79.60;;;;;;4987654;28;20498;-63
2023/01/01 10:28:03;;;;;;;5.57;2.80;;;14.60;79.40;;;;;;4986339;28;20038;-63
2023/01/01 10:30:29;;;;;;;4.10;2.40;;;14.70;79.10;;;;;;4984490;28;20031;-64
2023/01/01 10:32:55;;;;;;;2.03;1.67;;;14.60;79.10;;;;;;4985195;28;20532;-63
2023/01/01 10:35:35;;;;;;;4.40;1.88;;;14.70;78.90;;;;;;4986009;28;20046;-63
2023/01/01 10:38:03;;;;;;;2.85;1.70;;;14.70;78.20;;;;;;4985972;28;20030;-63
2023/01/01 10:40:29;;;;;;;4.43;2.40;;;14.80;78.60;;;;;;4979243;28;20042;-62
2023/01/01 10:42:57;;;;;;;2.38;1.40;;;14.90;78.60;;;;;;4978042;28;20041;-61
2023/01/01 10:45:33;;;;;;;7.10;4.45;;;14.90;78.50;;;;;;4982577;28;20050;-62
2023/01/01 10:48:13;;;;;;;9.93;6.50;;;15.00;78.20;;;;;;4980791;28;20054;-61
2023/01/01 10:50:42;;;;;;;6.22;4.10;;;15.10;77.70;;;;;;4967466;28;20069;-60
2023/01/01 10:53:21;;;;;;;12.48;9.35;;;15.20;78.00;;;;;;4978419;28;20078;-62
2023/01/01 10:55:49;;;;;;;6.82;4.95;;;15.20;77.50;;;;;;4982920;28;20065;-63
2023/01/01 10:58:36;;;;;;;6.68;4.30;;;15.30;77.80;;;;;;4980032;28;20450;-60
2023/01/01 11:01:04;;;;;;;6.40;3.90;;;15.40;77.50;;;;;;4982330;28;20506;-63
2023/01/01 11:03:30;;;;;;;8.27;5.40;;;15.50;77.30;;;;;;4981709;28;20046;-61
2023/01/01 11:06:17;;;;;;;12.98;7.00;;;15.50;76.60;;;;;;4983264;28;21748;-62
2023/01/01 11:08:48;;;;;;;3.28;2.53;;;15.60;75.60;;;;;;4982786;28;20045;-61
2023/01/01 11:11:21;;;;;;;4.95;3.53;;;15.70;76.10;;;;;;4976151;28;20429;-63
2023/01/01 11:13:50;;;;;;;4.80;4.40;;;15.80;75.50;;;;;;4984411;28;20038;-63
2023/01/01 11:16:15;;;;;;;3.75;2.45;;;15.80;75.80;;;;;;4982794;28;20033;-63
2023/01/01 11:18:41;;;;;;;2.75;2.17;;;15.90;75.60;;;;;;4980184;28;20034;-61
2023/01/01 11:21:07;;;;;;;2.85;2.10;;;15.90;75.30;;;;;;4980513;28;20027;-61
2023/01/01 11:23:35;;;;;;;2.30;1.52;;;16.00;75.20;;;;;;4985248;28;20084;-63
2023/01/01 11:26:12;;;;;;;2.92;1.63;;;16.00;74.60;;;;;;4983344;28;20506;-63
2023/01/01 11:28:39;;;;;;;2.25;1.60;;;16.10;74.80;;;;;;4982395;28;20046;-62
2023/01/01 11:31:19;;;;;;;2.80;1.65;;;16.10;73.50;;;;;;4981212;28;20406;-63
2023/01/01 11:33:51;;;;;;;2.83;1.67;;;16.20;72.70;;;;;;4981803;28;20042;-64
2023/01/01 11:36:24;;;;;;;2.63;1.80;;;16.30;73.80;;;;;;4981293;28;20038;-61
2023/01/01 11:39:10;;;;;;;2.33;2.08;;;16.30;73.90;;;;;;4983773;28;20089;-60
2023/01/01 11:41:44;;;;;;;2.47;1.65;;;16.30;74.20;;;;;;4980555;28;20034;-63
2023/01/01 11:44:12;;;;;;;4.00;1.80;;;16.30;73.50;;;;;;4982360;28;20045;-63
2023/01/01 11:46:38;;;;;;;3.50;1.80;;;16.40;74.00;;;;;;4978787;28;20038;-62
2023/01/01 11:49:13;;;;;;;4.50;2.05;;;16.40;73.90;;;;;;4986845;28;20034;-61
2023/01/01 11:51:39;;;;;;;3.95;1.77;;;16.30;73.30;;;;;;4981969;28;20402;-60
2023/01/01 11:54:23;;;;;;;2.75;1.88;;;16.40;73.90;;;;;;4981000;28;20035;-62
2023/01/01 11:56:53;;;;;;;1.50;1.20;;;16.40;73.30;;;;;;4980450;28;20034;-61
2023/01/01 11:59:27;;;;;;;3.95;1.50;;;16.40;72.10;;;;;;4978909;28;20031;-62
2023/01/01 12:01:58;;;;;;;6.30;2.90;;;16.40;72.30;;;;;;4983004;28;20049;-62
2023/01/01 12:04:36;;;;;;;2.92;1.77;;;16.40;72.80;;;;;;4980322;28;20109;-62
2023/01/01 12:07:06;;;;;;;6.70;3.75;;;16.40;72.60;;;;;;4978720;28;20065;-59
2023/01/01 12:09:53;;;;;;;3.63;2.65;;;16.50;72.30;;;;;;4983643;28;20050;-62
2023/01/01 12:12:29;;;;;;;3.83;1.20;;;16.60;71.50;;;;;;4973242;28;20034;-59
2023/01/01 12:15:06;;;;;;;2.72;1.10;;;16.70;71.40;;;;;;4982121;28;20042;-60
2023/01/01 12:18:10;;;;;;;2.22;1.10;;;16.70;71.50;;;;;;4982341;28;20042;-58
2023/01/01 12:20:52;;;;;;;1.58;1.10;;;16.70;69.70;;;;;;4905720;29;20051;-60
2023/01/01 12:23:18;;;;;;;2.72;1.80;;;16.70;68.30;;;;;;4972373;28;20042;-62
2023/01/01 12:25:54;;;;;;;3.35;2.00;;;16.80;69.90;;;;;;4980486;28;20429;-63
2023/01/01 12:28:42;;;;;;;2.83;1.70;;;16.90;69.20;;;;;;4981430;28;20038;-62
2023/01/01 12:31:32;;;;;;;3.03;1.30;;;16.90;68.60;;;;;;4977876;28;20410;-61
2023/01/01 12:34:17;;;;;;;4.57;1.60;;;16.90;68.00;;;;;;4978987;28;20038;-60
2023/01/01 12:36:55;;;;;;;2.38;1.50;;;17.00;69.70;;;;;;4978954;28;20054;-61
2023/01/01 12:39:32;;;;;;;2.88;1.50;;;17.00;69.50;;;;;;4978863;28;20030;-61
2023/01/01 12:42:30;;;;;;;2.90;1.80;;;17.00;68.30;;;;;;4978750;28;20465;-59
2023/01/01 12:45:35;;;;;;;1.95;1.15;;;17.10;68.50;;;;;;4981337;28;20038;-59
2023/01/01 12:48:11;;;;;;;3.55;2.08;;;17.10;66.40;;;;;;4979795;28;20034;-61
2023/01/01 12:51:01;;;;;;;2.25;1.67;;;17.20;67.90;;;;;;4980247;28;20077;-61
2023/01/01 12:54:02;;;;;;;2.15;1.10;;;17.20;68.20;;;;;;4979483;28;20034;-61
2023/01/01 12:57:12;;;;;;;3.35;2.00;;;17.20;67.30;;;;;;4982482;28;20034;-61
2023/01/01 12:59:44;;;;;;;2.65;1.73;;;17.30;68.00;;;;;;4872321;29;20073;-60